Time;durP1;ratioP1;P1;durP2;ratioP2;P2;SDS_P1;SDS_P2;PMS_P1;PMS_P2;Temp;Humidity;BMP_temperature;BMP_pressure;BME280_temperature;BME280_humidity;BME280_pressure;Samples;Min_cycle;Max_cycle;Signal;HPM_P1;HPM_P2
2022/04/04 00:00:38;;;;;;;13.13;10.70;;;;;;;;;;5072369;28;20506;-77
2022/04/04 00:03:05;;;;;;;16.10;12.20;;;;;;;;;;5071684;28;20486;-77
2022/04/04 00:05:33;;;;;;;14.13;12.40;;;;;;;;;;5079105;28;20876;-78
2022/04/04 00:08:00;;;;;;;13.77;12.37;;;;;;;;;;5093200;28;20421;-77
2022/04/04 00:10:27;;;;;;;15.60;13.93;;;;;;;;;;5094483;28;20452;-78
2022/04/04 00:12:54;;;;;;;16.17;12.83;;;;;;;;;;5092297;28;20722;-78
2022/04/04 00:15:21;;;;;;;16.00;13.00;;;;;;;;;;5094148;28;20468;-77
2022/04/04 00:17:48;;;;;;;14.27;12.90;;;;;;;;;;5094978;28;20447;-77
2022/04/04 00:20:16;;;;;;;14.50;13.10;;;;;;;;;;5100690;28;20436;-76
2022/04/04 00:22:45;;;;;;;15.17;12.80;;;;;;;;;;5100325;28;20440;-81
2022/04/04 00:25:12;;;;;;;14.03;12.60;;;;;;;;;;5095371;28;20468;-78
2022/04/04 00:27:39;;;;;;;15.30;13.70;;;;;;;;;;5095108;28;20440;-79
2022/04/04 00:30:07;;;;;;;16.33;13.83;;;;;;;;;;5093063;28;20501;-77
2022/04/04 00:32:36;;;;;;;14.00;12.67;;;;;;;;;;5105707;28;20478;-76
2022/04/04 00:35:03;;;;;;;15.77;13.87;;;;;;;;;;5113795;28;20482;-76
2022/04/04 00:37:30;;;;;;;13.90;12.50;;;;;;;;;;5097242;28;20420;-78
2022/04/04 00:39:58;;;;;;;15.67;14.07;;;;;;;;;;5095012;28;20455;-77
2022/04/04 00:42:25;;;;;;;14.43;12.93;;;;;;;;;;5093282;28;20435;-79
2022/04/04 00:44:52;;;;;;;15.40;13.80;;;;;;;;;;5092979;28;20971;-78
2022/04/04 00:47:19;;;;;;;15.33;13.73;;;;;;;;;;5088985;28;20456;-78
2022/04/04 00:49:48;;;;;;;15.57;13.87;;;;;;;;;;5092696;28;20455;-78
2022/04/04 00:52:15;;;;;;;13.83;12.47;;;;;;;;;;5079337;28;20506;-77
2022/04/04 00:54:42;;;;;;;14.50;13.20;;;;;;;;;;5071728;28;20464;-77
2022/04/04 00:57:11;;;;;;;14.63;12.40;;;;;;;;;;5071525;28;20448;-78
2022/04/04 00:59:39;;;;;;;13.90;12.50;;;;;;;;;;5071455;28;20498;-77
2022/04/04 01:02:06;;;;;;;15.27;13.67;;;;;;;;;;5071415;28;20495;-78
2022/04/04 01:04:33;;;;;;;14.63;13.10;;;;;;;;;;5071084;28;20522;-78
2022/04/04 01:07:01;;;;;;;14.17;12.80;;;;;;;;;;5089379;28;20508;-77
2022/04/04 01:09:28;;;;;;;15.07;13.53;;;;;;;;;;5092927;28;20448;-77
2022/04/04 01:12:06;;;;;;;13.80;12.43;;;;;;;;;;5091973;28;20480;-77
2022/04/04 01:14:34;;;;;;;14.77;12.97;;;;;;;;;;5093179;28;20467;-77
2022/04/04 01:17:01;;;;;;;14.83;12.23;;;;;;;;;;5092638;28;20530;-76
2022/04/04 01:19:28;;;;;;;14.10;12.60;;;;;;;;;;5090753;28;20439;-76
2022/04/04 01:21:55;;;;;;;14.93;13.53;;;;;;;;;;5090903;28;20458;-76
2022/04/04 01:24:24;;;;;;;14.87;13.30;;;;;;;;;;5092314;28;20463;-78
2022/04/04 01:26:52;;;;;;;14.60;13.10;;;;;;;;;;5092431;28;20436;-77
2022/04/04 01:29:19;;;;;;;16.40;14.63;;;;;;;;;;5090588;28;20447;-78
2022/04/04 01:31:46;;;;;;;14.13;12.63;;;;;;;;;;5090305;28;20924;-77
2022/04/04 01:34:13;;;;;;;14.43;13.03;;;;;;;;;;5091345;28;20467;-77
2022/04/04 01:36:40;;;;;;;16.27;13.23;;;;;;;;;;5091553;28;20947;-77
2022/04/04 01:39:07;;;;;;;14.80;13.33;;;;;;;;;;5090731;28;20432;-77
2022/04/04 01:41:36;;;;;;;13.97;12.50;;;;;;;;;;5090512;28;20460;-78
2022/04/04 01:44:03;;;;;;;14.87;13.50;;;;;;;;;;5091351;28;20468;-78
2022/04/04 01:46:30;;;;;;;16.30;12.50;;;;;;;;;;5090954;28;20806;-78
2022/04/04 01:48:58;;;;;;;14.70;13.10;;;;;;;;;;5091564;28;20505;-78
2022/04/04 01:51:25;;;;;;;15.03;13.53;;;;;;;;;;5091467;28;20451;-77
2022/04/04 01:53:53;;;;;;;14.03;12.73;;;;;;;;;;5090427;28;21040;-77
2022/04/04 01:56:20;;;;;;;14.73;13.20;;;;;;;;;;5091429;28;20448;-77
2022/04/04 01:58:48;;;;;;;13.17;11.90;;;;;;;;;;5090646;28;20440;-77
2022/04/04 02:01:16;;;;;;;24.70;18.93;;;;;;;;;;5092550;28;20443;-78
2022/04/04 02:03:44;;;;;;;20.57;17.67;;;;;;;;;;5093444;28;20479;-77
2022/04/04 02:06:11;;;;;;;17.57;15.67;;;;;;;;;;5092778;28;20462;-77
2022/04/04 02:08:38;;;;;;;14.83;13.33;;;;;;;;;;5092816;28;20447;-77
2022/04/04 02:11:05;;;;;;;14.87;13.33;;;;;;;;;;5092455;28;20435;-77
2022/04/04 02:13:32;;;;;;;15.80;14.10;;;;;;;;;;5090844;28;20506;-76
2022/04/04 02:16:02;;;;;;;16.20;12.87;;;;;;;;;;5090831;28;20455;-77
2022/04/04 02:18:29;;;;;;;14.53;13.03;;;;;;;;;;5091120;28;20450;-77
2022/04/04 02:20:56;;;;;;;15.67;13.37;;;;;;;;;;5091380;28;20443;-77
2022/04/04 02:23:23;;;;;;;15.27;13.67;;;;;;;;;;5090853;28;20443;-77
2022/04/04 02:25:52;;;;;;;16.03;13.90;;;;;;;;;;5091006;28;20444;-77
2022/04/04 02:28:19;;;;;;;14.80;13.30;;;;;;;;;;5091299;28;20538;-77
2022/04/04 02:30:47;;;;;;;16.70;14.00;;;;;;;;;;5091502;28;20444;-77
2022/04/04 02:33:16;;;;;;;14.37;12.20;;;;;;;;;;5090760;28;20486;-76
2022/04/04 02:35:43;;;;;;;14.37;12.83;;;;;;;;;;5090816;28;20452;-76
2022/04/04 02:38:11;;;;;;;16.63;14.13;;;;;;;;;;5091113;28;20439;-76
2022/04/04 02:40:38;;;;;;;15.80;14.20;;;;;;;;;;5090215;28;20487;-77
2022/04/04 02:43:06;;;;;;;14.73;13.27;;;;;;;;;;5091016;28;20439;-78
2022/04/04 02:45:33;;;;;;;15.83;14.13;;;;;;;;;;5091282;28;20491;-78
2022/04/04 02:48:00;;;;;;;15.83;14.30;;;;;;;;;;5091507;28;20497;-77
2022/04/04 02:50:29;;;;;;;17.80;13.53;;;;;;;;;;5095707;28;20447;-78
2022/04/04 02:52:56;;;;;;;15.20;13.60;;;;;;;;;;5096751;28;20889;-77
2022/04/04 02:58:09;;;;;;;16.20;14.10;;;;;;;;;;5098209;28;20423;-77
2022/04/04 03:00:36;;;;;;;17.63;14.50;;;;;;;;;;5097353;28;20448;-77
2022/04/04 03:03:04;;;;;;;19.83;15.07;;;;;;;;;;5097138;28;20431;-77
2022/04/04 03:05:32;;;;;;;15.30;13.70;;;;;;;;;;5096069;28;21014;-76
2022/04/04 03:07:59;;;;;;;17.07;14.60;;;;;;;;;;5094891;28;20535;-77
2022/04/04 03:10:26;;;;;;;19.93;15.00;;;;;;;;;;5094400;28;20663;-77
2022/04/04 03:12:53;;;;;;;17.93;14.70;;;;;;;;;;5093893;28;20484;-76
2022/04/04 03:15:21;;;;;;;16.67;14.87;;;;;;;;;;5093964;28;20464;-77
2022/04/04 03:17:49;;;;;;;16.37;14.60;;;;;;;;;;5094863;28;20444;-77
2022/04/04 03:20:18;;;;;;;17.27;14.87;;;;;;;;;;5095377;28;20483;-78
2022/04/04 03:22:48;;;;;;;16.77;15.00;;;;;;;;;;5096507;28;20428;-77
2022/04/04 03:25:17;;;;;;;18.87;14.77;;;;;;;;;;5096280;28;21054;-77
2022/04/04 03:27:44;;;;;;;15.33;13.87;;;;;;;;;;5095207;28;20428;-78
2022/04/04 03:30:12;;;;;;;16.77;15.07;;;;;;;;;;5095815;28;20455;-78
2022/04/04 03:32:39;;;;;;;16.50;14.07;;;;;;;;;;5096132;28;20533;-77
2022/04/04 03:35:07;;;;;;;15.70;13.20;;;;;;;;;;5096529;28;20463;-77
2022/04/04 03:37:36;;;;;;;15.47;14.00;;;;;;;;;;5095819;28;20486;-79
2022/04/04 03:40:06;;;;;;;16.67;14.33;;;;;;;;;;5097223;28;20444;-77
2022/04/04 03:42:34;;;;;;;16.27;14.27;;;;;;;;;;5095776;28;20466;-77
2022/04/04 03:45:02;;;;;;;19.23;16.17;;;;;;;;;;5094603;28;20472;-77
2022/04/04 03:47:29;;;;;;;14.33;12.83;;;;;;;;;;5094635;28;20451;-76
2022/04/04 03:49:56;;;;;;;16.53;14.60;;;;;;;;;;5092871;28;20444;-76
2022/04/04 03:52:23;;;;;;;16.80;14.17;;;;;;;;;;5094817;28;20447;-78
2022/04/04 03:54:50;;;;;;;16.60;14.37;;;;;;;;;;5093992;28;20486;-76
2022/04/04 03:57:19;;;;;;;16.60;14.60;;;;;;;;;;5093428;28;20483;-77
2022/04/04 03:59:46;;;;;;;15.33;13.73;;;;;;;;;;5092238;28;20444;-77
2022/04/04 04:02:13;;;;;;;15.93;14.30;;;;;;;;;;5091284;28;20947;-76
2022/04/04 04:04:40;;;;;;;17.33;15.60;;;;;;;;;;5074450;28;20475;-79
2022/04/04 04:07:10;;;;;;;17.47;15.77;;;;;;;;;;5093392;28;20444;-77
2022/04/04 04:09:38;;;;;;;17.70;15.37;;;;;;;;;;5096454;28;20506;-78
2022/04/04 04:12:05;;;;;;;16.57;14.77;;;;;;;;;;5091534;28;20787;-77
2022/04/04 04:14:34;;;;;;;18.50;16.70;;;;;;;;;;5093977;28;20508;-77
2022/04/04 04:17:02;;;;;;;18.07;15.87;;;;;;;;;;5086005;28;20448;-77
2022/04/04 04:22:14;;;;;;;19.83;16.77;;;;;;;;;;5072898;28;20452;-77
2022/04/04 04:24:42;;;;;;;16.43;14.83;;;;;;;;;;5073032;28;20468;-76
2022/04/04 04:27:09;;;;;;;16.10;14.43;;;;;;;;;;5072592;28;20444;-77
2022/04/04 04:29:37;;;;;;;14.83;13.17;;;;;;;;;;5072064;28;20498;-75
2022/04/04 04:32:04;;;;;;;16.17;14.67;;;;;;;;;;5071607;28;20445;-77
2022/04/04 04:34:31;;;;;;;15.63;13.87;;;;;;;;;;5073926;28;20487;-78
2022/04/04 04:36:58;;;;;;;17.63;14.20;;;;;;;;;;5077151;28;20990;-77
2022/04/04 04:39:25;;;;;;;18.83;13.33;;;;;;;;;;5073565;28;20448;-79
2022/04/04 04:41:53;;;;;;;15.30;13.43;;;;;;;;;;5072022;28;20468;-77
2022/04/04 04:44:20;;;;;;;21.67;18.93;;;;;;;;;;5071737;28;20774;-78
2022/04/04 04:46:49;;;;;;;19.23;16.57;;;;;;;;;;5071404;28;20448;-77
2022/04/04 04:49:16;;;;;;;13.73;12.33;;;;;;;;;;5071646;28;20889;-77
2022/04/04 04:51:43;;;;;;;12.37;11.07;;;;;;;;;;5071766;28;20556;-78
2022/04/04 04:54:10;;;;;;;10.80;9.70;;;;;;;;;;5072023;28;20489;-78
2022/04/04 04:56:37;;;;;;;11.17;9.50;;;;;;;;;;5071360;28;20445;-77
2022/04/04 04:59:04;;;;;;;12.27;9.47;;;;;;;;;;5071366;28;20449;-77
2022/04/04 05:01:31;;;;;;;10.67;9.67;;;;;;;;;;5071043;28;20453;-77
2022/04/04 05:04:00;;;;;;;11.90;9.63;;;;;;;;;;5070779;28;20460;-77
2022/04/04 05:06:27;;;;;;;11.93;10.50;;;;;;;;;;5084405;28;20927;-78
2022/04/04 05:08:55;;;;;;;12.13;9.23;;;;;;;;;;5091913;28;20444;-77
2022/04/04 05:11:22;;;;;;;9.30;8.50;;;;;;;;;;5091450;28;20446;-78
2022/04/04 05:13:50;;;;;;;11.27;10.10;;;;;;;;;;5090815;28;20583;-79
2022/04/04 05:16:17;;;;;;;10.87;9.03;;;;;;;;;;5091159;28;20479;-77
2022/04/04 05:18:45;;;;;;;10.00;9.10;;;;;;;;;;5090733;28;20440;-77
2022/04/04 05:21:13;;;;;;;10.80;9.60;;;;;;;;;;5090655;28;20432;-77
2022/04/04 05:23:41;;;;;;;10.83;9.60;;;;;;;;;;5091336;28;20517;-76
2022/04/04 05:26:08;;;;;;;12.50;10.67;;;;;;;;;;5091120;28;20634;-79
2022/04/04 05:28:35;;;;;;;10.50;9.57;;;;;;;;;;5091606;28;20448;-76
2022/04/04 05:31:04;;;;;;;12.00;10.43;;;;;;;;;;5091068;28;20474;-75
2022/04/04 05:33:31;;;;;;;9.93;9.07;;;;;;;;;;5090684;28;20533;-78
2022/04/04 05:35:58;;;;;;;10.57;9.57;;;;;;;;;;5091216;28;20455;-78
2022/04/04 05:38:28;;;;;;;10.63;9.33;;;;;;;;;;5091056;28;20924;-76
2022/04/04 05:40:55;;;;;;;12.03;9.90;;;;;;;;;;5090994;28;20504;-76
2022/04/04 05:43:22;;;;;;;14.93;10.80;;;;;;;;;;5091119;28;20480;-77
2022/04/04 05:45:50;;;;;;;11.77;10.57;;;;;;;;;;5098875;28;20459;-78
2022/04/04 05:48:17;;;;;;;14.37;10.80;;;;;;;;;;5097820;28;20463;-78
2022/04/04 05:50:44;;;;;;;13.70;10.57;;;;;;;;;;5102332;28;20448;-76
2022/04/04 05:53:11;;;;;;;12.00;10.80;;;;;;;;;;5089660;28;20441;-77
2022/04/04 05:55:39;;;;;;;15.80;12.33;;;;;;;;;;5082888;28;20443;-77
2022/04/04 05:58:06;;;;;;;12.13;10.80;;;;;;;;;;5089121;28;20443;-79
2022/04/04 06:00:33;;;;;;;11.53;10.33;;;;;;;;;;5078472;28;20445;-79
2022/04/04 06:03:02;;;;;;;11.70;10.60;;;;;;;;;;5071343;28;20545;-77
2022/04/04 06:05:30;;;;;;;14.27;9.57;;;;;;;;;;5076181;28;20990;-77
2022/04/04 06:07:57;;;;;;;15.30;11.63;;;;;;;;;;5092368;28;20443;-77
2022/04/04 06:10:24;;;;;;;14.43;11.20;;;;;;;;;;5092211;28;20511;-78
2022/04/04 06:12:52;;;;;;;11.70;9.50;;;;;;;;;;5091538;28;20478;-79
2022/04/04 06:15:19;;;;;;;13.20;11.80;;;;;;;;;;5092017;28;20474;-79
2022/04/04 06:17:47;;;;;;;11.83;10.63;;;;;;;;;;5091894;28;20479;-80
2022/04/04 06:20:14;;;;;;;12.97;11.50;;;;;;;;;;5092155;28;20448;-77
2022/04/04 06:22:42;;;;;;;11.87;10.60;;;;;;;;;;5092650;28;20993;-77
2022/04/04 06:25:09;;;;;;;12.47;11.17;;;;;;;;;;5096010;28;20575;-78
2022/04/04 06:27:36;;;;;;;14.37;11.90;;;;;;;;;;5095447;28;20512;-77
2022/04/04 06:30:05;;;;;;;13.93;9.83;;;;;;;;;;5095425;28;20448;-77
2022/04/04 06:32:33;;;;;;;11.50;10.30;;;;;;;;;;5094141;28;20522;-76
2022/04/04 06:35:00;;;;;;;11.33;10.20;;;;;;;;;;5094282;28;20464;-77
2022/04/04 06:37:27;;;;;;;10.80;9.80;;;;;;;;;;5094509;28;21022;-78
2022/04/04 06:39:54;;;;;;;10.40;9.30;;;;;;;;;;5094879;28;20439;-78
2022/04/04 06:42:21;;;;;;;11.10;10.07;;;;;;;;;;5093840;28;20459;-79
2022/04/04 06:44:48;;;;;;;10.47;9.57;;;;;;;;;;5088892;28;20915;-77
2022/04/04 06:47:16;;;;;;;11.40;10.17;;;;;;;;;;5093224;28;20450;-79
2022/04/04 06:49:44;;;;;;;10.80;9.70;;;;;;;;;;5087133;28;20449;-77
2022/04/04 06:52:11;;;;;;;10.40;9.00;;;;;;;;;;5074257;28;20445;-77
2022/04/04 06:54:38;;;;;;;10.47;9.40;;;;;;;;;;5081332;28;20473;-76
2022/04/04 06:57:05;;;;;;;11.10;9.83;;;;;;;;;;5084109;28;20937;-76
2022/04/04 06:59:33;;;;;;;11.10;9.70;;;;;;;;;;5082342;28;20794;-77
2022/04/04 07:02:00;;;;;;;11.10;9.57;;;;;;;;;;5081003;28;20441;-77
2022/04/04 07:04:29;;;;;;;12.17;11.07;;;;;;;;;;5077313;28;20495;-77
2022/04/04 07:06:56;;;;;;;9.60;8.60;;;;;;;;;;5090961;28;20510;-78
2022/04/04 07:09:24;;;;;;;9.70;8.80;;;;;;;;;;5094347;28;20458;-77
2022/04/04 07:11:51;;;;;;;9.77;8.70;;;;;;;;;;5094641;28;20483;-78
2022/04/04 07:14:18;;;;;;;9.10;8.30;;;;;;;;;;5094292;28;20466;-77
2022/04/04 07:16:45;;;;;;;8.53;7.73;;;;;;;;;;5095330;28;20432;-77
2022/04/04 07:19:15;;;;;;;8.73;7.93;;;;;;;;;;5095718;28;20869;-77
2022/04/04 07:21:44;;;;;;;9.77;8.87;;;;;;;;;;5095074;28;20526;-78
2022/04/04 07:24:11;;;;;;;8.57;7.73;;;;;;;;;;5095268;28;20577;-77
2022/04/04 07:26:38;;;;;;;9.00;8.10;;;;;;;;;;5101736;28;20432;-79
2022/04/04 07:29:05;;;;;;;9.53;8.40;;;;;;;;;;5090342;28;21393;-78
2022/04/04 07:31:32;;;;;;;9.33;8.47;;;;;;;;;;5094313;28;20549;-77
2022/04/04 07:34:00;;;;;;;9.27;8.10;;;;;;;;;;5093491;28;20465;-78
2022/04/04 07:36:27;;;;;;;9.23;8.17;;;;;;;;;;5092664;28;20440;-77
2022/04/04 07:38:56;;;;;;;9.63;8.60;;;;;;;;;;5094610;28;20441;-78
2022/04/04 07:41:23;;;;;;;9.47;8.60;;;;;;;;;;5094973;28;20804;-80
2022/04/04 07:43:50;;;;;;;10.23;8.77;;;;;;;;;;5093628;28;20472;-78
2022/04/04 07:46:17;;;;;;;8.20;7.50;;;;;;;;;;5095075;28;20799;-79
2022/04/04 07:48:45;;;;;;;9.07;7.90;;;;;;;;;;5094605;28;20451;-78
2022/04/04 07:51:13;;;;;;;11.63;8.70;;;;;;;;;;5094480;28;20533;-77
2022/04/04 07:53:40;;;;;;;9.47;8.57;;;;;;;;;;5093914;28;20469;-78
2022/04/04 07:56:08;;;;;;;8.50;7.80;;;;;;;;;;5094257;28;20485;-77
2022/04/04 07:58:35;;;;;;;9.30;8.40;;;;;;;;;;5094478;28;20477;-77
2022/04/04 08:01:03;;;;;;;8.80;8.07;;;;;;;;;;5095295;28;20944;-76
2022/04/04 08:03:30;;;;;;;9.60;8.60;;;;;;;;;;5093930;28;20965;-78
2022/04/04 08:05:57;;;;;;;10.57;7.80;;;;;;;;;;5093267;28;20764;-78
2022/04/04 08:08:25;;;;;;;9.53;8.60;;;;;;;;;;5095018;28;20442;-79
2022/04/04 08:10:52;;;;;;;9.40;8.60;;;;;;;;;;5094391;28;20864;-78
2022/04/04 08:13:20;;;;;;;9.60;8.80;;;;;;;;;;5085378;28;20458;-78
2022/04/04 08:15:47;;;;;;;9.57;8.77;;;;;;;;;;5092292;28;20428;-77
2022/04/04 08:18:14;;;;;;;9.87;9.00;;;;;;;;;;5090598;28;20812;-78
2022/04/04 08:20:42;;;;;;;9.03;8.23;;;;;;;;;;5091438;28;20440;-77
2022/04/04 08:23:09;;;;;;;9.93;8.97;;;;;;;;;;5091976;28;20483;-78
2022/04/04 08:25:36;;;;;;;9.80;9.00;;;;;;;;;;5093157;28;20486;-76
2022/04/04 08:28:04;;;;;;;10.00;9.10;;;;;;;;;;5092346;28;20474;-79
2022/04/04 08:30:32;;;;;;;11.20;9.83;;;;;;;;;;5094261;28;20439;-77
2022/04/04 08:32:59;;;;;;;9.00;8.20;;;;;;;;;;5092636;28;20454;-78
2022/04/04 08:35:26;;;;;;;9.70;8.90;;;;;;;;;;5093181;28;20887;-78
2022/04/04 08:37:53;;;;;;;10.33;9.43;;;;;;;;;;5090376;28;20460;-79
2022/04/04 08:40:20;;;;;;;9.07;8.37;;;;;;;;;;5092386;28;20992;-79
2022/04/04 08:42:48;;;;;;;8.43;7.70;;;;;;;;;;5090819;28;20452;-78
2022/04/04 08:45:15;;;;;;;10.10;9.10;;;;;;;;;;5091636;28;20558;-79
2022/04/04 08:47:43;;;;;;;9.53;8.83;;;;;;;;;;5090542;28;20446;-77
2022/04/04 08:50:11;;;;;;;9.60;8.80;;;;;;;;;;5091758;28;20478;-80
2022/04/04 08:52:38;;;;;;;10.33;9.53;;;;;;;;;;5093632;28;20540;-79
2022/04/04 08:55:06;;;;;;;9.60;8.70;;;;;;;;;;5092790;28;20556;-79
2022/04/04 08:57:33;;;;;;;9.60;8.80;;;;;;;;;;5092738;28;20432;-78
2022/04/04 09:00:00;;;;;;;9.67;8.77;;;;;;;;;;5090462;28;20504;-79
2022/04/04 09:02:27;;;;;;;9.13;8.30;;;;;;;;;;5093233;28;20473;-77
2022/04/04 09:05:03;;;;;;;9.30;8.40;;;;;;;;;;5092850;28;20476;-79
2022/04/04 09:07:30;;;;;;;8.73;8.03;;;;;;;;;;5094285;28;20478;-78
2022/04/04 09:09:57;;;;;;;9.50;8.70;;;;;;;;;;5093587;28;20443;-80
2022/04/04 09:12:26;;;;;;;7.73;7.03;;;;;;;;;;5091964;28;20955;-75
2022/04/04 09:14:54;;;;;;;8.13;7.27;;;;;;;;;;5090254;28;20829;-77
2022/04/04 09:17:24;;;;;;;7.13;6.53;;;;;;;;;;5086296;28;20448;-78
2022/04/04 09:19:51;;;;;;;7.70;7.10;;;;;;;;;;5083123;28;20454;-79
2022/04/04 09:22:20;;;;;;;7.30;6.80;;;;;;;;;;5092948;28;20483;-80
2022/04/04 09:24:49;;;;;;;8.10;7.50;;;;;;;;;;5097806;28;20495;-78
2022/04/04 09:27:21;;;;;;;7.80;7.20;;;;;;;;;;5090965;28;20444;-78
2022/04/04 09:29:48;;;;;;;10.47;7.83;;;;;;;;;;5093833;28;20866;-80
2022/04/04 09:32:15;;;;;;;8.07;7.47;;;;;;;;;;5093591;28;20449;-78
2022/04/04 09:34:52;;;;;;;8.03;7.23;;;;;;;;;;5093206;28;21069;-80
2022/04/04 09:37:22;;;;;;;8.13;7.43;;;;;;;;;;5090425;28;20459;-77
2022/04/04 09:39:50;;;;;;;8.00;7.40;;;;;;;;;;5092439;28;20787;-80
2022/04/04 09:42:17;;;;;;;8.07;7.37;;;;;;;;;;5092539;28;20480;-80
2022/04/04 09:44:57;;;;;;;8.83;8.00;;;;;;;;;;5092399;28;20522;-78
2022/04/04 09:47:24;;;;;;;9.00;8.30;;;;;;;;;;5093206;28;20491;-79
2022/04/04 09:49:51;;;;;;;8.77;8.07;;;;;;;;;;5092732;28;20457;-78
2022/04/04 09:52:18;;;;;;;8.97;8.27;;;;;;;;;;5092098;28;20454;-79
2022/04/04 09:54:52;;;;;;;7.87;7.27;;;;;;;;;;5088699;28;20482;-78
2022/04/04 09:57:20;;;;;;;7.30;6.80;;;;;;;;;;5088975;28;20861;-79
2022/04/04 09:59:48;;;;;;;8.33;7.63;;;;;;;;;;5093665;28;20442;-78
2022/04/04 10:02:15;;;;;;;8.50;7.90;;;;;;;;;;5096320;28;20440;-78
2022/04/04 10:04:44;;;;;;;8.43;7.50;;;;;;;;;;5092059;28;20487;-79
2022/04/04 10:07:13;;;;;;;8.37;7.70;;;;;;;;;;5096356;28;20837;-79
2022/04/04 10:09:41;;;;;;;8.27;7.67;;;;;;;;;;5097143;28;20443;-78
2022/04/04 10:12:10;;;;;;;8.00;7.40;;;;;;;;;;5098235;28;20564;-81
2022/04/04 10:14:37;;;;;;;9.00;8.27;;;;;;;;;;5096027;28;20756;-78
2022/04/04 10:17:05;;;;;;;9.73;8.97;;;;;;;;;;5096582;28;20459;-79
2022/04/04 10:19:33;;;;;;;8.43;7.73;;;;;;;;;;5096518;28;20450;-79
2022/04/04 10:22:00;;;;;;;8.60;8.00;;;;;;;;;;5092511;28;20455;-79
2022/04/04 10:24:28;;;;;;;8.00;7.40;;;;;;;;;;5095549;28;20847;-79
2022/04/04 10:26:58;;;;;;;9.50;8.80;;;;;;;;;;5088785;28;20440;-80
2022/04/04 10:29:38;;;;;;;8.90;8.20;;;;;;;;;;5098416;28;20483;-79
2022/04/04 10:32:05;;;;;;;8.60;7.90;;;;;;;;;;5105651;28;20815;-80
2022/04/04 10:34:42;;;;;;;9.33;8.53;;;;;;;;;;5107175;28;20478;-79
2022/04/04 10:37:10;;;;;;;9.70;8.97;;;;;;;;;;5097660;28;20439;-80
2022/04/04 10:39:44;;;;;;;9.63;8.83;;;;;;;;;;5101147;28;20447;-80
2022/04/04 10:42:25;;;;;;;9.43;8.50;;;;;;;;;;5108047;28;20731;-79
2022/04/04 10:44:59;;;;;;;9.27;8.47;;;;;;;;;;5105015;28;20547;-78
2022/04/04 10:47:28;;;;;;;8.80;8.10;;;;;;;;;;5095434;28;20479;-81
2022/04/04 10:49:56;;;;;;;9.83;9.13;;;;;;;;;;5098157;28;20435;-79
2022/04/04 10:52:38;;;;;;;9.70;8.90;;;;;;;;;;5097990;28;20443;-79
2022/04/04 10:55:20;;;;;;;9.27;8.47;;;;;;;;;;5097829;28;20451;-79
2022/04/04 10:57:47;;;;;;;8.73;8.03;;;;;;;;;;5097950;28;20443;-79
2022/04/04 11:00:17;;;;;;;7.47;6.97;;;;;;;;;;5097111;28;20448;-82
2022/04/04 11:02:45;;;;;;;8.13;7.43;;;;;;;;;;5096788;28;20448;-79
2022/04/04 11:08:03;;;;;;;7.40;6.90;;;;;;;;;;5080401;28;20783;-81
2022/04/04 11:10:39;;;;;;;7.10;6.50;;;;;;;;;;5095431;28;20444;-81
2022/04/04 11:13:09;;;;;;;7.57;7.07;;;;;;;;;;5095561;28;20533;-79
2022/04/04 11:15:44;;;;;;;7.80;7.20;;;;;;;;;;5099302;28;20479;-79
2022/04/04 11:18:11;;;;;;;7.80;7.20;;;;;;;;;;5096103;28;20492;-79
2022/04/04 11:20:43;;;;;;;7.50;6.90;;;;;;;;;;5096680;28;20440;-79
2022/04/04 11:23:11;;;;;;;7.93;7.23;;;;;;;;;;5095441;28;20530;-80
2022/04/04 11:25:38;;;;;;;7.37;6.77;;;;;;;;;;5096600;28;20480;-79
2022/04/04 11:28:06;;;;;;;6.83;6.33;;;;;;;;;;5095696;28;20444;-79
2022/04/04 11:30:33;;;;;;;7.43;6.87;;;;;;;;;;5096581;28;20906;-78
2022/04/04 11:33:02;;;;;;;7.50;6.90;;;;;;;;;;5095388;28;20431;-78
2022/04/04 11:35:31;;;;;;;8.03;7.37;;;;;;;;;;5095702;28;21053;-78
2022/04/04 11:37:59;;;;;;;7.43;6.83;;;;;;;;;;5096228;28;20900;-79
2022/04/04 11:40:29;;;;;;;7.73;7.13;;;;;;;;;;5097507;28;20465;-78
2022/04/04 11:42:57;;;;;;;7.60;6.73;;;;;;;;;;5095747;28;20440;-80
2022/04/04 11:45:25;;;;;;;7.27;6.67;;;;;;;;;;5096150;28;21031;-80
2022/04/04 11:54:11;;;;;;;7.70;7.10;;;;;;;;;;5029057;28;21039;-79
2022/04/04 11:59:46;;;;;;;5.70;5.27;;;;;;;;;;5090588;28;20424;-79
2022/04/04 12:13:57;;;;;;;6.77;6.27;;;;;;;;;;5094392;28;20458;-80
2022/04/04 12:16:24;;;;;;;7.80;7.20;;;;;;;;;;5094876;28;20471;-79
2022/04/04 12:18:53;;;;;;;6.93;6.43;;;;;;;;;;5094695;28;20440;-78
2022/04/04 12:21:21;;;;;;;7.00;6.50;;;;;;;;;;5094300;28;20796;-79
2022/04/04 12:26:49;;;;;;;7.47;6.87;;;;;;;;;;5032559;28;20477;-81
2022/04/04 12:29:16;;;;;;;6.50;6.10;;;;;;;;;;5032514;28;20772;-81
2022/04/04 12:31:54;;;;;;;7.50;6.80;;;;;;;;;;5059972;28;20540;-80
2022/04/04 12:34:23;;;;;;;7.23;6.50;;;;;;;;;;5093842;28;20474;-78
2022/04/04 12:36:51;;;;;;;6.50;6.03;;;;;;;;;;5093832;28;20440;-78
2022/04/04 12:39:19;;;;;;;7.17;6.67;;;;;;;;;;5093913;28;20541;-80
2022/04/04 12:41:50;;;;;;;7.33;6.73;;;;;;;;;;5093398;28;20440;-81
2022/04/04 12:44:20;;;;;;;7.03;6.53;;;;;;;;;;5092419;28;20471;-77
2022/04/04 12:46:47;;;;;;;8.27;7.60;;;;;;;;;;5094530;28;20491;-78
2022/04/04 12:49:16;;;;;;;7.63;6.90;;;;;;;;;;5092981;28;20451;-79
2022/04/04 12:51:51;;;;;;;7.17;6.60;;;;;;;;;;5094558;28;20432;-78
2022/04/04 12:54:31;;;;;;;7.17;6.67;;;;;;;;;;5094049;28;20470;-78
2022/04/04 13:00:15;;;;;;;7.53;6.93;;;;;;;;;;5091642;28;20448;-79
2022/04/04 13:03:11;;;;;;;7.97;7.37;;;;;;;;;;5085788;28;20527;-77
2022/04/04 13:08:38;;;;;;;7.90;7.20;;;;;;;;;;5085043;28;20446;-79
2022/04/04 13:11:06;;;;;;;8.63;7.80;;;;;;;;;;5086795;28;20445;-78
2022/04/04 13:13:34;;;;;;;9.40;7.70;;;;;;;;;;5076092;28;20472;-79
2022/04/04 13:16:01;;;;;;;7.50;6.80;;;;;;;;;;5085053;28;20487;-78
2022/04/04 13:18:28;;;;;;;8.07;7.47;;;;;;;;;;5092397;28;20502;-79
2022/04/04 13:20:55;;;;;;;8.30;7.70;;;;;;;;;;5094617;28;20443;-79
2022/04/04 13:23:22;;;;;;;7.33;6.73;;;;;;;;;;5093601;28;20474;-78
2022/04/04 13:25:51;;;;;;;8.00;7.40;;;;;;;;;;5094701;28;20507;-79
2022/04/04 13:28:18;;;;;;;7.50;7.00;;;;;;;;;;5099521;28;20966;-79
2022/04/04 13:30:46;;;;;;;7.83;7.23;;;;;;;;;;5082704;28;20429;-80
2022/04/04 13:33:13;;;;;;;7.67;6.87;;;;;;;;;;5084591;28;20437;-80
2022/04/04 13:35:40;;;;;;;8.63;7.83;;;;;;;;;;5074744;28;20506;-80
2022/04/04 13:38:07;;;;;;;7.47;6.97;;;;;;;;;;5078902;28;20472;-79
2022/04/04 13:40:34;;;;;;;7.90;7.20;;;;;;;;;;5090504;28;21004;-79
2022/04/04 13:43:02;;;;;;;8.23;7.53;;;;;;;;;;5100523;28;20447;-78
2022/04/04 13:45:30;;;;;;;8.70;7.90;;;;;;;;;;5099988;28;20478;-79
2022/04/04 13:47:57;;;;;;;7.60;7.00;;;;;;;;;;5096351;28;20450;-79
2022/04/04 13:50:24;;;;;;;8.20;7.60;;;;;;;;;;5095646;28;20432;-79
2022/04/04 13:52:51;;;;;;;8.07;7.47;;;;;;;;;;5100619;28;20436;-77
2022/04/04 13:55:18;;;;;;;7.37;6.87;;;;;;;;;;5101472;28;20502;-79
2022/04/04 13:57:45;;;;;;;7.50;6.90;;;;;;;;;;5101117;28;20451;-80
2022/04/04 14:00:14;;;;;;;7.13;6.57;;;;;;;;;;5102058;28;20444;-80
2022/04/04 14:02:43;;;;;;;7.87;7.27;;;;;;;;;;5094808;28;20448;-78
2022/04/04 14:05:12;;;;;;;8.07;7.47;;;;;;;;;;5095118;28;20460;-79
2022/04/04 14:07:40;;;;;;;8.20;7.40;;;;;;;;;;5093826;28;20448;-79
2022/04/04 14:10:07;;;;;;;8.37;7.67;;;;;;;;;;5092119;28;20526;-79
2022/04/04 14:12:36;;;;;;;7.30;6.70;;;;;;;;;;5084859;28;20447;-79
2022/04/04 14:15:04;;;;;;;8.40;7.70;;;;;;;;;;5083676;28;20483;-79
2022/04/04 14:17:35;;;;;;;8.00;7.20;;;;;;;;;;5073240;28;20445;-78
2022/04/04 14:20:02;;;;;;;8.60;7.90;;;;;;;;;;5072868;28;20953;-78
2022/04/04 14:22:29;;;;;;;8.23;7.63;;;;;;;;;;5071821;28;20552;-78
2022/04/04 14:24:57;;;;;;;11.67;8.03;;;;;;;;;;5071805;28;20804;-78
2022/04/04 14:27:24;;;;;;;8.00;7.30;;;;;;;;;;5085555;28;20506;-78
2022/04/04 14:29:51;;;;;;;8.10;7.53;;;;;;;;;;5092159;28;20455;-78
2022/04/04 14:32:19;;;;;;;8.67;7.87;;;;;;;;;;5091618;28;20451;-76
2022/04/04 14:34:47;;;;;;;9.00;8.20;;;;;;;;;;5091961;28;20459;-77
2022/04/04 14:37:14;;;;;;;8.83;7.93;;;;;;;;;;5092497;28;20444;-77
2022/04/04 14:39:45;;;;;;;8.50;7.80;;;;;;;;;;5091574;28;20436;-77
2022/04/04 14:42:13;;;;;;;8.30;7.50;;;;;;;;;;5091835;28;20813;-77
2022/04/04 14:44:40;;;;;;;7.70;7.10;;;;;;;;;;5093885;28;20533;-78
2022/04/04 14:47:08;;;;;;;7.77;7.17;;;;;;;;;;5098060;28;20570;-78
2022/04/04 14:49:35;;;;;;;8.13;7.43;;;;;;;;;;5097336;28;20424;-78
2022/04/04 14:52:03;;;;;;;8.73;8.03;;;;;;;;;;5099514;28;20524;-79
2022/04/04 14:54:30;;;;;;;8.10;7.40;;;;;;;;;;5098179;28;20448;-79
2022/04/04 14:56:59;;;;;;;8.00;7.43;;;;;;;;;;5098897;28;20439;-79
2022/04/04 14:59:27;;;;;;;8.37;7.57;;;;;;;;;;5096060;28;20451;-78
2022/04/04 15:01:54;;;;;;;8.27;7.33;;;;;;;;;;5099739;28;20841;-78
2022/04/04 15:04:21;;;;;;;11.37;8.03;;;;;;;;;;5099059;28;20459;-78
2022/04/04 15:06:48;;;;;;;9.10;8.30;;;;;;;;;;5100224;28;20478;-78
2022/04/04 15:09:17;;;;;;;8.00;7.40;;;;;;;;;;5094141;28;20449;-79
2022/04/04 15:11:44;;;;;;;8.83;7.93;;;;;;;;;;5093439;28;20877;-78
2022/04/04 15:14:11;;;;;;;8.77;7.97;;;;;;;;;;5096801;28;20478;-79